createdAt,value
2018-08-23T00:00:57.692Z,7.40
2018-08-23T00:04:07.732Z,7.27
2018-08-23T00:07:14.830Z,6.90
2018-08-23T00:10:19.798Z,6.93
2018-08-23T00:13:24.693Z,7.57
2018-08-23T00:16:35.362Z,7.40
2018-08-23T00:19:40.246Z,6.87
2018-08-23T00:22:45.540Z,7.70
2018-08-23T00:25:50.424Z,7.30
2018-08-23T00:28:55.334Z,6.70
2018-08-23T00:32:07.774Z,7.70
2018-08-23T00:35:18.744Z,7.13
2018-08-23T00:38:23.668Z,7.20
2018-08-23T00:41:28.569Z,7.73
2018-08-23T00:44:51.116Z,6.70
2018-08-23T00:47:56.020Z,7.23
2018-08-23T00:51:03.551Z,7.70
2018-08-23T00:54:08.461Z,7.17
2018-08-23T00:57:13.341Z,6.87
2018-08-23T01:00:20.813Z,7.90
2018-08-23T01:03:26.129Z,7.20
2018-08-23T01:06:39.316Z,7.43
2018-08-23T01:09:44.627Z,7.40
2018-08-23T01:12:58.576Z,7.60
2018-08-23T01:16:03.582Z,6.93
2018-08-23T01:20:13.988Z,7.53
2018-08-23T01:23:18.963Z,8.70
2018-08-23T01:26:23.925Z,8.33
2018-08-23T01:29:29.719Z,9.17
2018-08-23T01:32:34.665Z,8.40
2018-08-23T01:35:40.293Z,8.50
2018-08-23T01:38:45.213Z,7.73
2018-08-23T01:41:50.138Z,8.57
2018-08-23T01:44:55.084Z,7.83
2018-08-23T01:48:02.689Z,8.70
2018-08-23T01:51:07.605Z,8.37
2018-08-23T01:54:12.529Z,8.27
2018-08-23T01:57:21.729Z,9.10
2018-08-23T02:00:31.764Z,9.60
2018-08-23T02:03:36.697Z,8.50
2018-08-23T02:06:41.593Z,8.77
2018-08-23T02:09:46.503Z,9.30
2018-08-23T02:12:54.428Z,9.20
2018-08-23T02:16:02.076Z,9.00
2018-08-23T02:19:06.989Z,10.13
2018-08-23T02:22:12.133Z,9.90
2018-08-23T02:25:17.221Z,9.67
2018-08-23T02:28:22.121Z,9.70
2018-08-23T02:31:27.008Z,9.70
2018-08-23T02:34:37.769Z,9.77
2018-08-23T02:37:42.178Z,10.23
2018-08-23T02:40:47.108Z,10.40
2018-08-23T02:43:52.028Z,9.90
2018-08-23T02:46:56.968Z,10.23
2018-08-23T02:50:01.905Z,10.27
2018-08-23T02:53:24.320Z,10.50
2018-08-23T02:56:29.219Z,11.27
2018-08-23T02:59:34.128Z,9.83
2018-08-23T03:02:39.085Z,10.03
2018-08-23T03:05:43.984Z,11.20
2018-08-23T03:08:48.906Z,10.70
2018-08-23T03:11:55.796Z,9.60
2018-08-23T03:15:00.749Z,10.90
2018-08-23T03:18:05.688Z,10.93
2018-08-23T03:21:10.577Z,10.87
2018-08-23T03:24:18.836Z,10.57
2018-08-23T03:27:23.713Z,11.07
2018-08-23T03:30:28.617Z,10.43
2018-08-23T03:33:34.009Z,12.00
2018-08-23T03:36:38.916Z,11.97
2018-08-23T03:39:43.993Z,11.33
2018-08-23T03:42:48.911Z,11.03
2018-08-23T03:45:56.413Z,11.73
2018-08-23T03:49:04.834Z,11.30
2018-08-23T03:52:09.736Z,11.67
2018-08-23T03:55:19.938Z,12.30
2018-08-23T03:58:24.821Z,12.37
2018-08-23T04:01:29.769Z,12.23
2018-08-23T04:04:34.700Z,12.47
2018-08-23T04:07:40.498Z,12.10
2018-08-23T04:10:45.428Z,12.43
2018-08-23T04:13:50.360Z,12.30
2018-08-23T04:16:55.303Z,11.60
2018-08-23T04:20:00.221Z,12.93
2018-08-23T04:23:05.189Z,12.77
2018-08-23T04:26:10.117Z,13.43
2018-08-23T04:29:30.381Z,13.97
2018-08-23T04:32:40.345Z,14.23
2018-08-23T04:35:45.269Z,14.13
2018-08-23T04:38:54.953Z,14.47
2018-08-23T04:42:01.356Z,13.33
2018-08-23T04:45:08.692Z,13.20
2018-08-23T04:48:13.688Z,14.17
2018-08-23T04:51:18.637Z,14.47
2018-08-23T04:54:23.603Z,13.60
2018-08-23T04:57:28.694Z,15.20
2018-08-23T05:01:00.343Z,15.20
2018-08-23T05:04:05.366Z,16.73
2018-08-23T05:07:10.192Z,15.83
2018-08-23T05:10:15.087Z,14.67
2018-08-23T05:13:20.002Z,15.27
2018-08-23T05:16:24.934Z,15.33
2018-08-23T05:19:29.874Z,15.10
2018-08-23T05:22:34.801Z,14.47
2018-08-23T05:25:39.709Z,14.57
2018-08-23T05:29:07.350Z,16.33
2018-08-23T05:32:12.304Z,15.57
2018-08-23T05:35:17.228Z,14.93
2018-08-23T05:38:22.191Z,15.13
2018-08-23T05:41:27.090Z,16.07
2018-08-23T05:44:32.005Z,15.17
2018-08-23T05:47:36.988Z,14.83
2018-08-23T05:50:41.856Z,15.27
2018-08-23T05:53:48.755Z,16.87
2018-08-23T05:56:53.179Z,16.50
2018-08-23T05:59:58.081Z,17.40
2018-08-23T06:03:03.049Z,14.60
2018-08-23T06:06:08.311Z,14.70
2018-08-23T06:09:14.786Z,16.90
2018-08-23T06:12:19.707Z,16.23
2018-08-23T06:15:24.750Z,16.07
2018-08-23T06:18:29.675Z,16.03
2018-08-23T06:21:34.581Z,14.50
2018-08-23T06:24:39.485Z,14.90
2018-08-23T06:27:44.390Z,16.27
2018-08-23T06:30:49.378Z,16.43
2018-08-23T06:33:55.909Z,15.93
2018-08-23T06:37:00.797Z,19.00
2018-08-23T06:40:05.749Z,16.80
2018-08-23T06:43:10.636Z,15.83
2018-08-23T06:46:15.542Z,16.90
2018-08-23T06:49:20.434Z,15.20
2018-08-23T06:52:35.401Z,15.73
2018-08-23T06:55:40.369Z,16.10
2018-08-23T06:58:45.353Z,14.87
2018-08-23T07:01:50.297Z,13.60
2018-08-23T07:04:55.241Z,13.97
2018-08-23T07:08:00.185Z,12.63
2018-08-23T07:11:11.402Z,14.83
2018-08-23T07:14:17.581Z,12.70
2018-08-23T07:17:25.472Z,12.17
2018-08-23T07:20:30.437Z,13.33
2018-08-23T07:23:35.976Z,14.37
2018-08-23T07:26:41.222Z,15.03
2018-08-23T07:29:50.391Z,13.53
2018-08-23T07:32:55.272Z,14.30
2018-08-23T07:36:14.593Z,14.20
2018-08-23T07:39:19.551Z,14.80
2018-08-23T07:42:26.688Z,12.23
2018-08-23T07:45:39.243Z,13.50
2018-08-23T07:48:44.211Z,12.37
2018-08-23T07:51:50.521Z,13.17
2018-08-23T07:54:55.944Z,11.97
2018-08-23T07:58:00.895Z,13.07
2018-08-23T08:01:05.894Z,10.90
2018-08-23T08:04:10.846Z,13.07
2018-08-23T08:07:18.477Z,12.63
2018-08-23T08:10:23.485Z,10.27
2018-08-23T08:13:28.925Z,10.70
2018-08-23T08:16:33.865Z,10.97
2018-08-23T08:19:40.788Z,10.23
2018-08-23T08:22:45.770Z,9.97
2018-08-23T08:25:50.724Z,9.93
2018-08-23T08:28:55.673Z,10.33
2018-08-23T08:32:01.480Z,9.40
2018-08-23T08:35:11.068Z,9.10
2018-08-23T08:38:16.053Z,8.50
2018-08-23T08:41:21.001Z,9.30
2018-08-23T08:44:25.958Z,8.30
2018-08-23T08:47:31.105Z,8.33
2018-08-23T08:50:40.642Z,7.60
2018-08-23T08:53:46.196Z,7.53
2018-08-23T08:56:51.251Z,7.50
2018-08-23T08:59:56.113Z,6.23
2018-08-23T09:03:01.072Z,5.37
2018-08-23T09:06:07.268Z,5.03
2018-08-23T09:09:25.973Z,4.83
2018-08-23T09:12:31.793Z,5.10
2018-08-23T09:15:36.709Z,4.73
2018-08-23T09:18:45.085Z,4.50
2018-08-23T09:21:58.702Z,4.63
2018-08-23T09:25:06.888Z,4.20
2018-08-23T09:28:11.878Z,4.50
2018-08-23T09:31:17.017Z,4.63
2018-08-23T09:34:22.473Z,4.23
2018-08-23T09:37:28.621Z,4.70
2018-08-23T09:40:33.848Z,4.37
2018-08-23T09:43:39.055Z,4.60
2018-08-23T09:46:48.513Z,4.80
2018-08-23T09:49:53.873Z,4.90
2018-08-23T09:52:59.024Z,4.90
2018-08-23T09:56:04.808Z,4.87
2018-08-23T09:59:27.716Z,4.73
2018-08-23T10:03:22.464Z,4.40
2018-08-23T10:06:33.296Z,4.23
2018-08-23T10:09:43.974Z,4.77
2018-08-23T10:12:55.045Z,4.20
2018-08-23T10:16:05.766Z,4.80
2018-08-23T10:23:15.270Z,4.63
2018-08-23T10:26:29.786Z,4.90
2018-08-23T10:29:34.701Z,5.17
2018-08-23T10:32:40.319Z,4.60
2018-08-23T10:35:46.381Z,4.27
2018-08-23T10:38:51.389Z,4.10
2018-08-23T10:41:56.369Z,4.23
2018-08-23T10:45:01.430Z,4.50
2018-08-23T10:48:12.046Z,3.60
2018-08-23T10:51:17.033Z,4.63
2018-08-23T10:54:21.980Z,4.63
2018-08-23T10:57:26.978Z,3.70
2018-08-23T11:00:31.912Z,4.67
2018-08-23T11:03:36.848Z,3.73
2018-08-23T11:06:47.532Z,4.50
2018-08-23T11:09:58.080Z,4.47
2018-08-23T11:13:08.684Z,4.10
2018-08-23T11:16:19.608Z,4.37
2018-08-23T11:19:30.129Z,3.60
2018-08-23T11:22:36.910Z,3.30
2018-08-23T11:25:41.916Z,2.83
2018-08-23T11:28:47.317Z,3.17
2018-08-23T11:31:52.728Z,3.20
2018-08-23T11:34:57.810Z,2.83
2018-08-23T11:38:02.756Z,2.57
2018-08-23T11:41:07.943Z,2.30
2018-08-23T11:44:12.966Z,2.77
2018-08-23T11:47:18.369Z,2.53
2018-08-23T11:50:23.485Z,2.30
2018-08-23T11:53:28.651Z,2.30
2018-08-23T11:56:33.669Z,2.60
2018-08-23T12:03:49.006Z,2.23
2018-08-23T12:10:54.189Z,2.33
2018-08-23T12:14:00.101Z,2.33
2018-08-23T12:17:05.103Z,2.47
2018-08-23T12:20:10.516Z,2.20
2018-08-23T12:23:15.473Z,2.47
2018-08-23T12:26:20.763Z,2.27
2018-08-23T12:29:25.832Z,1.93
2018-08-23T12:32:30.826Z,2.13
2018-08-23T12:35:36.161Z,2.40
2018-08-23T12:38:47.141Z,2.50
2018-08-23T12:41:57.768Z,2.50
2018-08-23T12:45:02.950Z,2.80
2018-08-23T12:48:09.284Z,2.53
2018-08-23T12:51:14.309Z,2.27
2018-08-23T12:54:19.252Z,2.40
2018-08-23T12:57:24.277Z,2.40
2018-08-23T13:00:29.265Z,2.40
2018-08-23T13:03:34.282Z,2.37
2018-08-23T13:06:39.216Z,2.40
2018-08-23T13:09:45.676Z,2.50
2018-08-23T13:12:51.355Z,2.60
2018-08-23T13:15:56.520Z,2.17
2018-08-23T13:19:01.469Z,2.57
2018-08-23T13:22:06.435Z,2.53
2018-08-23T13:25:12.805Z,2.40
2018-08-23T13:28:17.793Z,2.40
2018-08-23T13:31:22.833Z,2.50
2018-08-23T13:34:27.818Z,2.70
2018-08-23T13:37:32.811Z,2.53
2018-08-23T13:40:37.805Z,2.73
2018-08-23T13:43:42.854Z,2.70
2018-08-23T13:46:47.871Z,2.60
2018-08-23T13:49:52.954Z,2.90
2018-08-23T13:52:57.902Z,2.70
2018-08-23T13:56:03.328Z,2.80
2018-08-23T13:59:08.404Z,2.50
2018-08-23T14:02:14.538Z,2.40
2018-08-23T14:05:19.702Z,2.90
2018-08-23T14:08:24.668Z,3.00
2018-08-23T14:11:29.818Z,2.97
2018-08-23T14:14:34.877Z,2.50
2018-08-23T14:17:39.817Z,2.77
2018-08-23T14:20:44.793Z,2.80
2018-08-23T14:23:49.749Z,2.83
2018-08-23T14:26:54.737Z,3.00
2018-08-23T14:29:59.725Z,2.77
2018-08-23T14:33:04.706Z,2.80
2018-08-23T14:36:09.926Z,2.83
2018-08-23T14:39:14.929Z,2.83
2018-08-23T14:42:19.890Z,3.07
2018-08-23T14:45:28.836Z,2.53
2018-08-23T14:48:33.814Z,2.90
2018-08-23T14:51:38.826Z,2.97
2018-08-23T14:54:43.801Z,3.33
2018-08-23T14:57:48.765Z,3.00
2018-08-23T15:00:53.760Z,2.90
2018-08-23T15:03:58.709Z,3.10
2018-08-23T15:07:03.692Z,3.27
2018-08-23T15:10:08.648Z,3.47
2018-08-23T15:13:13.813Z,2.83
2018-08-23T15:16:18.778Z,3.00
2018-08-23T15:19:23.744Z,3.07
2018-08-23T15:22:28.681Z,2.83
2018-08-23T15:25:33.637Z,3.20
2018-08-23T15:28:38.562Z,2.93
2018-08-23T15:31:44.476Z,2.97
2018-08-23T15:34:49.426Z,3.23
2018-08-23T15:37:54.563Z,3.20
2018-08-23T15:40:59.525Z,3.50
2018-08-23T15:44:04.509Z,3.37
2018-08-23T15:47:09.790Z,3.43
2018-08-23T15:50:14.792Z,3.80
2018-08-23T15:53:19.751Z,3.30
2018-08-23T15:56:24.721Z,3.33
2018-08-23T15:59:29.729Z,3.53
2018-08-23T16:02:34.716Z,3.43
2018-08-23T16:05:39.797Z,3.57
2018-08-23T16:08:51.669Z,3.77
2018-08-23T16:11:56.604Z,3.73
2018-08-23T16:15:06.175Z,4.07
2018-08-23T16:18:16.662Z,3.83
2018-08-23T16:21:27.384Z,3.80
2018-08-23T16:24:32.560Z,3.90
2018-08-23T16:27:37.517Z,4.03
2018-08-23T16:30:43.330Z,3.77
2018-08-23T16:33:48.298Z,3.70
2018-08-23T16:37:01.198Z,3.57
2018-08-23T16:40:06.516Z,3.53
2018-08-23T16:43:11.888Z,3.77
2018-08-23T16:46:16.919Z,3.40
2018-08-23T16:49:21.869Z,3.50
2018-08-23T16:52:27.873Z,3.47
2018-08-23T16:55:33.201Z,3.70
2018-08-23T16:58:38.381Z,4.13
2018-08-23T17:01:43.268Z,3.97
2018-08-23T17:04:48.190Z,4.50
2018-08-23T17:07:53.109Z,4.63
2018-08-23T17:10:58.005Z,4.40
2018-08-23T17:14:03.125Z,4.47
2018-08-23T17:17:13.830Z,4.63
2018-08-23T17:20:18.748Z,4.10
2018-08-23T17:23:23.785Z,4.07
2018-08-23T17:26:28.849Z,4.70
2018-08-23T17:29:34.131Z,4.93
2018-08-23T17:32:39.150Z,3.97
2018-08-23T17:35:44.070Z,4.97
2018-08-23T17:38:48.979Z,8.10
2018-08-23T17:41:53.897Z,7.43
2018-08-23T17:44:58.833Z,5.90
2018-08-23T17:48:04.726Z,6.07
2018-08-23T17:51:09.662Z,5.57
2018-08-23T17:54:14.590Z,5.70
2018-08-23T17:57:19.577Z,5.70
2018-08-23T18:00:24.518Z,5.03
2018-08-23T18:03:29.469Z,5.60
2018-08-23T18:06:34.454Z,5.80
2018-08-23T18:09:39.846Z,6.07
2018-08-23T18:12:45.340Z,5.37
2018-08-23T18:15:56.329Z,6.37
2018-08-23T18:19:01.273Z,5.37
2018-08-23T18:22:06.209Z,6.00
2018-08-23T18:25:11.109Z,5.93
2018-08-23T18:28:16.089Z,6.50
2018-08-23T18:31:21.082Z,5.83
2018-08-23T18:34:26.032Z,5.87
2018-08-23T18:37:31.054Z,5.90
2018-08-23T18:40:36.485Z,6.10
2018-08-23T18:43:41.743Z,7.03
2018-08-23T18:46:46.653Z,6.57
2018-08-23T18:49:51.587Z,6.63
2018-08-23T18:52:56.501Z,6.20
2018-08-23T18:56:01.477Z,5.80
2018-08-23T18:59:06.437Z,6.53
2018-08-23T19:02:11.424Z,6.20
2018-08-23T19:05:17.172Z,6.33
2018-08-23T19:08:23.035Z,6.13
2018-08-23T19:11:27.977Z,6.07
2018-08-23T19:14:32.937Z,6.77
2018-08-23T19:17:39.269Z,6.10
2018-08-23T19:20:44.242Z,5.57
2018-08-23T19:23:49.225Z,5.93
2018-08-23T19:26:54.188Z,6.73
2018-08-23T19:30:00.784Z,5.77
2018-08-23T19:33:05.937Z,5.93
2018-08-23T19:36:10.894Z,6.13
2018-08-23T19:39:15.848Z,6.10
2018-08-23T19:42:20.979Z,7.03
2018-08-23T19:45:25.925Z,6.70
2018-08-23T19:48:31.133Z,6.20
2018-08-23T19:51:36.096Z,6.00
2018-08-23T19:54:41.048Z,5.57
2018-08-23T19:57:45.981Z,6.03
2018-08-23T20:00:51.020Z,5.90
2018-08-23T20:03:55.964Z,6.10
2018-08-23T20:07:01.283Z,5.70
2018-08-23T20:10:06.281Z,5.67
2018-08-23T20:13:11.228Z,6.27
2018-08-23T20:16:16.207Z,6.07
2018-08-23T20:19:21.210Z,5.67
2018-08-23T20:22:26.148Z,5.30
2018-08-23T20:25:31.084Z,5.53
2018-08-23T20:28:36.013Z,5.20
2018-08-23T20:31:40.972Z,5.13
2018-08-23T20:34:45.900Z,5.90
2018-08-23T20:37:50.994Z,4.80
2018-08-23T20:40:55.992Z,5.23
2018-08-23T20:44:01.386Z,4.50
2018-08-23T20:47:06.483Z,5.53
2018-08-23T20:50:11.285Z,4.70
2018-08-23T20:53:16.265Z,5.00
2018-08-23T20:56:21.197Z,4.97
2018-08-23T20:59:26.171Z,5.13
2018-08-23T21:02:31.098Z,4.77
2018-08-23T21:05:43.988Z,5.00
2018-08-23T21:08:48.917Z,4.57
2018-08-23T21:11:54.092Z,5.10
2018-08-23T21:14:59.028Z,5.13
2018-08-23T21:18:05.806Z,5.13
2018-08-23T21:21:10.645Z,5.40
2018-08-23T21:24:15.600Z,5.57
2018-08-23T21:27:20.544Z,5.23
2018-08-23T21:30:25.482Z,5.60
2018-08-23T21:33:30.404Z,5.13
2018-08-23T21:36:35.345Z,5.20
2018-08-23T21:39:40.265Z,5.47
2018-08-23T21:42:45.256Z,5.60
2018-08-23T21:45:50.238Z,5.10
2018-08-23T21:48:55.173Z,5.67
2018-08-23T21:52:00.105Z,5.60
2018-08-23T21:55:05.372Z,5.73
2018-08-23T22:02:19.360Z,5.70
2018-08-23T22:05:24.256Z,5.37
2018-08-23T22:08:29.153Z,5.30
2018-08-23T22:11:34.072Z,5.03
2018-08-23T22:14:39.316Z,5.20
2018-08-23T22:17:44.213Z,5.40
2018-08-23T22:20:49.157Z,5.30
2018-08-23T22:23:54.069Z,5.33
2018-08-23T22:26:58.986Z,5.80
2018-08-23T22:30:04.736Z,5.30
2018-08-23T22:33:10.924Z,5.13
2018-08-23T22:36:15.828Z,5.50
2018-08-23T22:39:20.733Z,5.40
2018-08-23T22:42:25.732Z,5.00
2018-08-23T22:45:30.644Z,5.50
2018-08-23T22:48:35.557Z,5.23
2018-08-23T22:51:40.641Z,4.80
2018-08-23T22:54:45.533Z,5.23
2018-08-23T22:57:50.613Z,5.23
2018-08-23T23:00:55.529Z,5.20
2018-08-23T23:04:06.289Z,5.30
2018-08-23T23:07:11.193Z,5.13
2018-08-23T23:10:16.132Z,4.90
2018-08-23T23:13:21.049Z,5.93
2018-08-23T23:16:26.095Z,5.27
2018-08-23T23:19:30.910Z,5.63
2018-08-23T23:22:35.829Z,5.23
2018-08-23T23:25:40.739Z,5.20
2018-08-23T23:28:45.657Z,4.93
2018-08-23T23:31:50.737Z,5.13
2018-08-23T23:34:55.774Z,5.60
2018-08-23T23:38:00.673Z,5.90
2018-08-23T23:41:05.589Z,6.27
2018-08-23T23:44:10.547Z,5.23
2018-08-23T23:47:15.455Z,5.27
2018-08-23T23:50:20.344Z,6.30
2018-08-23T23:53:49.517Z,5.27
2018-08-23T23:56:54.429Z,5.57
2018-08-23T23:59:59.341Z,5.13
